sensor_id;sensor_type;location;lat;lon;timestamp;temperature;humidity
14122;DHT22;7139;48.114;11.442;2023-08-30T00:00:22;13.30;99.90
14122;DHT22;7139;48.114;11.442;2023-08-30T00:02:49;13.20;99.90
14122;DHT22;7139;48.114;11.442;2023-08-30T00:05:16;13.20;99.90
14122;DHT22;7139;48.114;11.442;2023-08-30T00:07:44;13.20;99.90
14122;DHT22;7139;48.114;11.442;2023-08-30T00:10:11;13.20;99.90
14122;DHT22;7139;48.114;11.442;2023-08-30T00:12:38;13.10;99.90
14122;DHT22;7139;48.114;11.442;2023-08-30T00:15:06;13.10;99.90
14122;DHT22;7139;48.114;11.442;2023-08-30T00:17:33;13.10;99.90
14122;DHT22;7139;48.114;11.442;2023-08-30T00:19:59;13.10;99.90
14122;DHT22;7139;48.114;11.442;2023-08-30T00:22:26;13.10;99.90
14122;DHT22;7139;48.114;11.442;2023-08-30T00:24:55;13.10;99.90
14122;DHT22;7139;48.114;11.442;2023-08-30T00:27:22;13.20;99.90
14122;DHT22;7139;48.114;11.442;2023-08-30T00:29:48;13.10;99.90
14122;DHT22;7139;48.114;11.442;2023-08-30T00:32:15;13.20;99.90
14122;DHT22;7139;48.114;11.442;2023-08-30T00:34:42;13.20;99.90
14122;DHT22;7139;48.114;11.442;2023-08-30T00:37:09;13.10;99.90
14122;DHT22;7139;48.114;11.442;2023-08-30T00:39:37;13.10;99.90
14122;DHT22;7139;48.114;11.442;2023-08-30T00:42:06;13.10;99.90
14122;DHT22;7139;48.114;11.442;2023-08-30T00:44:33;13.10;99.90
14122;DHT22;7139;48.114;11.442;2023-08-30T00:47:00;13.10;99.90
14122;DHT22;7139;48.114;11.442;2023-08-30T00:49:48;13.10;99.90
14122;DHT22;7139;48.114;11.442;2023-08-30T00:52:15;13.10;99.90
14122;DHT22;7139;48.114;11.442;2023-08-30T00:57:54;13.10;99.90
14122;DHT22;7139;48.114;11.442;2023-08-30T01:00:20;13.10;99.90
14122;DHT22;7139;48.114;11.442;2023-08-30T01:02:47;13.10;99.90
14122;DHT22;7139;48.114;11.442;2023-08-30T01:05:24;13.10;99.90
14122;DHT22;7139;48.114;11.442;2023-08-30T01:08:00;13.00;99.90
14122;DHT22;7139;48.114;11.442;2023-08-30T01:10:35;13.00;99.90
14122;DHT22;7139;48.114;11.442;2023-08-30T01:13:10;12.90;99.90
14122;DHT22;7139;48.114;11.442;2023-08-30T01:15:39;12.90;99.90
14122;DHT22;7139;48.114;11.442;2023-08-30T01:18:07;13.00;99.90
14122;DHT22;7139;48.114;11.442;2023-08-30T01:20:37;13.00;99.90
14122;DHT22;7139;48.114;11.442;2023-08-30T01:23:06;13.00;99.90
14122;DHT22;7139;48.114;11.442;2023-08-30T01:25:53;13.00;99.90
14122;DHT22;7139;48.114;11.442;2023-08-30T01:28:25;13.00;99.90
14122;DHT22;7139;48.114;11.442;2023-08-30T01:30:53;13.00;99.90
14122;DHT22;7139;48.114;11.442;2023-08-30T01:33:20;13.00;99.90
14122;DHT22;7139;48.114;11.442;2023-08-30T01:35:48;13.10;99.90
14122;DHT22;7139;48.114;11.442;2023-08-30T01:38:14;13.10;99.90
14122;DHT22;7139;48.114;11.442;2023-08-30T01:40:43;13.10;99.90
14122;DHT22;7139;48.114;11.442;2023-08-30T01:43:11;13.10;99.90
14122;DHT22;7139;48.114;11.442;2023-08-30T01:45:42;13.10;99.90
14122;DHT22;7139;48.114;11.442;2023-08-30T01:48:10;13.10;99.90
14122;DHT22;7139;48.114;11.442;2023-08-30T01:50:38;13.20;99.90
14122;DHT22;7139;48.114;11.442;2023-08-30T01:53:06;13.10;99.90
14122;DHT22;7139;48.114;11.442;2023-08-30T01:55:34;13.20;99.90
14122;DHT22;7139;48.114;11.442;2023-08-30T01:58:02;13.20;99.90
14122;DHT22;7139;48.114;11.442;2023-08-30T02:00:29;13.10;99.90
14122;DHT22;7139;48.114;11.442;2023-08-30T02:02:58;13.20;99.90
14122;DHT22;7139;48.114;11.442;2023-08-30T02:05:24;13.10;99.90
14122;DHT22;7139;48.114;11.442;2023-08-30T02:07:55;13.10;99.90
14122;DHT22;7139;48.114;11.442;2023-08-30T02:10:26;13.10;99.90
14122;DHT22;7139;48.114;11.442;2023-08-30T02:12:56;13.20;99.90
14122;DHT22;7139;48.114;11.442;2023-08-30T02:15:25;13.20;99.90
14122;DHT22;7139;48.114;11.442;2023-08-30T02:17:52;13.10;99.90
14122;DHT22;7139;48.114;11.442;2023-08-30T02:20:20;13.10;99.90
14122;DHT22;7139;48.114;11.442;2023-08-30T02:22:48;13.20;99.90
14122;DHT22;7139;48.114;11.442;2023-08-30T02:25:15;13.10;99.90
14122;DHT22;7139;48.114;11.442;2023-08-30T02:27:41;13.10;99.90
14122;DHT22;7139;48.114;11.442;2023-08-30T02:30:08;13.10;99.90
14122;DHT22;7139;48.114;11.442;2023-08-30T02:32:35;13.10;99.90
14122;DHT22;7139;48.114;11.442;2023-08-30T02:35:33;13.10;99.90
14122;DHT22;7139;48.114;11.442;2023-08-30T02:37:59;13.20;99.90
14122;DHT22;7139;48.114;11.442;2023-08-30T02:40:30;13.20;99.90
14122;DHT22;7139;48.114;11.442;2023-08-30T02:42:57;13.10;99.90
14122;DHT22;7139;48.114;11.442;2023-08-30T02:45:23;13.10;99.90
14122;DHT22;7139;48.114;11.442;2023-08-30T02:47:50;13.10;99.90
14122;DHT22;7139;48.114;11.442;2023-08-30T02:50:27;13.10;99.90
14122;DHT22;7139;48.114;11.442;2023-08-30T02:52:54;13.10;99.90
14122;DHT22;7139;48.114;11.442;2023-08-30T02:55:21;13.10;99.90
14122;DHT22;7139;48.114;11.442;2023-08-30T02:57:48;13.10;99.90
14122;DHT22;7139;48.114;11.442;2023-08-30T03:00:15;13.10;99.90
14122;DHT22;7139;48.114;11.442;2023-08-30T03:02:42;13.10;99.90
14122;DHT22;7139;48.114;11.442;2023-08-30T03:05:09;13.10;99.90
14122;DHT22;7139;48.114;11.442;2023-08-30T03:07:38;13.10;99.90
14122;DHT22;7139;48.114;11.442;2023-08-30T03:10:06;13.10;99.90
14122;DHT22;7139;48.114;11.442;2023-08-30T03:12:33;13.10;99.90
14122;DHT22;7139;48.114;11.442;2023-08-30T03:14:59;13.10;99.90
14122;DHT22;7139;48.114;11.442;2023-08-30T03:17:26;13.10;99.90
14122;DHT22;7139;48.114;11.442;2023-08-30T03:19:53;13.10;99.90
14122;DHT22;7139;48.114;11.442;2023-08-30T03:22:20;13.10;99.90
14122;DHT22;7139;48.114;11.442;2023-08-30T03:25:06;13.20;99.90
14122;DHT22;7139;48.114;11.442;2023-08-30T03:28:02;13.20;99.90
14122;DHT22;7139;48.114;11.442;2023-08-30T03:30:30;13.20;99.90
14122;DHT22;7139;48.114;11.442;2023-08-30T03:32:57;13.20;99.90
14122;DHT22;7139;48.114;11.442;2023-08-30T03:35:24;13.20;99.90
14122;DHT22;7139;48.114;11.442;2023-08-30T03:37:50;13.20;99.90
14122;DHT22;7139;48.114;11.442;2023-08-30T03:40:19;13.20;99.90
14122;DHT22;7139;48.114;11.442;2023-08-30T03:42:45;13.20;99.90
14122;DHT22;7139;48.114;11.442;2023-08-30T03:45:12;13.20;99.90
14122;DHT22;7139;48.114;11.442;2023-08-30T03:47:39;13.20;99.90
14122;DHT22;7139;48.114;11.442;2023-08-30T03:50:07;13.20;99.90
14122;DHT22;7139;48.114;11.442;2023-08-30T03:52:34;13.20;99.90
14122;DHT22;7139;48.114;11.442;2023-08-30T03:55:01;13.30;99.90
14122;DHT22;7139;48.114;11.442;2023-08-30T03:57:30;13.30;99.90
14122;DHT22;7139;48.114;11.442;2023-08-30T03:59:57;13.20;99.90
14122;DHT22;7139;48.114;11.442;2023-08-30T04:02:24;13.30;99.90
14122;DHT22;7139;48.114;11.442;2023-08-30T04:04:50;13.20;99.90
14122;DHT22;7139;48.114;11.442;2023-08-30T04:07:17;13.20;99.90
14122;DHT22;7139;48.114;11.442;2023-08-30T04:09:44;13.20;99.90
14122;DHT22;7139;48.114;11.442;2023-08-30T04:12:10;13.20;99.90
14122;DHT22;7139;48.114;11.442;2023-08-30T04:14:39;13.30;99.90
14122;DHT22;7139;48.114;11.442;2023-08-30T04:17:05;13.30;99.90
14122;DHT22;7139;48.114;11.442;2023-08-30T04:19:32;13.20;99.90
14122;DHT22;7139;48.114;11.442;2023-08-30T04:21:59;13.30;99.90
14122;DHT22;7139;48.114;11.442;2023-08-30T04:27:30;13.30;99.90
14122;DHT22;7139;48.114;11.442;2023-08-30T04:29:58;13.20;99.90
14122;DHT22;7139;48.114;11.442;2023-08-30T04:32:25;13.30;99.90
14122;DHT22;7139;48.114;11.442;2023-08-30T04:34:52;13.20;99.90
14122;DHT22;7139;48.114;11.442;2023-08-30T04:37:18;13.30;99.90
14122;DHT22;7139;48.114;11.442;2023-08-30T04:39:47;13.30;99.90
14122;DHT22;7139;48.114;11.442;2023-08-30T04:42:14;13.30;99.90
14122;DHT22;7139;48.114;11.442;2023-08-30T04:47:28;13.20;99.90
14122;DHT22;7139;48.114;11.442;2023-08-30T04:49:54;13.20;99.90
14122;DHT22;7139;48.114;11.442;2023-08-30T04:52:21;13.20;99.90
14122;DHT22;7139;48.114;11.442;2023-08-30T04:54:52;13.20;99.90
14122;DHT22;7139;48.114;11.442;2023-08-30T04:57:19;13.20;99.90
14122;DHT22;7139;48.114;11.442;2023-08-30T04:59:46;13.20;99.90
14122;DHT22;7139;48.114;11.442;2023-08-30T05:02:13;13.20;99.90
14122;DHT22;7139;48.114;11.442;2023-08-30T05:04:41;13.20;99.90
14122;DHT22;7139;48.114;11.442;2023-08-30T05:07:08;13.20;99.90
14122;DHT22;7139;48.114;11.442;2023-08-30T05:09:37;13.20;99.90
14122;DHT22;7139;48.114;11.442;2023-08-30T05:12:06;13.20;99.90
14122;DHT22;7139;48.114;11.442;2023-08-30T05:14:33;13.20;99.90
14122;DHT22;7139;48.114;11.442;2023-08-30T05:17:00;13.20;99.90
14122;DHT22;7139;48.114;11.442;2023-08-30T05:19:27;13.20;99.90
14122;DHT22;7139;48.114;11.442;2023-08-30T05:21:55;13.20;99.90
14122;DHT22;7139;48.114;11.442;2023-08-30T05:24:22;13.20;99.90
14122;DHT22;7139;48.114;11.442;2023-08-30T05:26:48;13.30;99.90
14122;DHT22;7139;48.114;11.442;2023-08-30T05:29:16;13.20;99.90
14122;DHT22;7139;48.114;11.442;2023-08-30T05:31:43;13.30;99.90
14122;DHT22;7139;48.114;11.442;2023-08-30T05:34:10;13.30;99.90
14122;DHT22;7139;48.114;11.442;2023-08-30T05:36:38;13.30;99.90
14122;DHT22;7139;48.114;11.442;2023-08-30T05:39:06;13.40;99.90
14122;DHT22;7139;48.114;11.442;2023-08-30T05:41:33;13.30;99.90
14122;DHT22;7139;48.114;11.442;2023-08-30T05:44:00;13.30;99.90
14122;DHT22;7139;48.114;11.442;2023-08-30T05:46:26;13.30;99.90
14122;DHT22;7139;48.114;11.442;2023-08-30T05:48:53;13.30;99.90
14122;DHT22;7139;48.114;11.442;2023-08-30T05:51:20;13.40;99.90
14122;DHT22;7139;48.114;11.442;2023-08-30T05:53:47;13.30;99.90
14122;DHT22;7139;48.114;11.442;2023-08-30T05:56:15;13.40;99.90
14122;DHT22;7139;48.114;11.442;2023-08-30T05:58:42;13.40;99.90
14122;DHT22;7139;48.114;11.442;2023-08-30T06:01:09;13.40;99.90
14122;DHT22;7139;48.114;11.442;2023-08-30T06:03:36;13.40;99.90
14122;DHT22;7139;48.114;11.442;2023-08-30T06:06:10;13.40;99.90
14122;DHT22;7139;48.114;11.442;2023-08-30T06:08:36;13.40;99.90
14122;DHT22;7139;48.114;11.442;2023-08-30T06:11:03;13.40;99.90
14122;DHT22;7139;48.114;11.442;2023-08-30T06:13:31;13.40;99.90
14122;DHT22;7139;48.114;11.442;2023-08-30T06:15:58;13.40;99.90
14122;DHT22;7139;48.114;11.442;2023-08-30T06:18:29;13.40;99.90
14122;DHT22;7139;48.114;11.442;2023-08-30T06:20:56;13.40;99.90
14122;DHT22;7139;48.114;11.442;2023-08-30T06:23:23;13.50;99.90
14122;DHT22;7139;48.114;11.442;2023-08-30T06:25:56;13.50;99.90
14122;DHT22;7139;48.114;11.442;2023-08-30T06:28:23;13.50;99.90
14122;DHT22;7139;48.114;11.442;2023-08-30T06:30:51;13.50;99.90
14122;DHT22;7139;48.114;11.442;2023-08-30T06:33:18;13.60;99.90
14122;DHT22;7139;48.114;11.442;2023-08-30T06:35:47;13.60;99.90
14122;DHT22;7139;48.114;11.442;2023-08-30T06:38:15;13.60;99.90
14122;DHT22;7139;48.114;11.442;2023-08-30T06:40:44;13.60;99.90
14122;DHT22;7139;48.114;11.442;2023-08-30T06:43:11;13.70;99.90
14122;DHT22;7139;48.114;11.442;2023-08-30T06:45:38;13.70;99.90
14122;DHT22;7139;48.114;11.442;2023-08-30T06:48:06;13.70;99.90
14122;DHT22;7139;48.114;11.442;2023-08-30T06:50:51;13.70;99.90
14122;DHT22;7139;48.114;11.442;2023-08-30T06:53:18;13.70;99.90
14122;DHT22;7139;48.114;11.442;2023-08-30T06:55:44;13.80;99.90
14122;DHT22;7139;48.114;11.442;2023-08-30T06:58:11;13.70;99.90
14122;DHT22;7139;48.114;11.442;2023-08-30T07:00:38;13.70;99.90
14122;DHT22;7139;48.114;11.442;2023-08-30T07:03:06;13.70;99.90
14122;DHT22;7139;48.114;11.442;2023-08-30T07:05:33;13.80;99.90
14122;DHT22;7139;48.114;11.442;2023-08-30T07:07:59;13.80;99.90
14122;DHT22;7139;48.114;11.442;2023-08-30T07:10:26;13.80;99.90
14122;DHT22;7139;48.114;11.442;2023-08-30T07:12:53;13.80;99.90
14122;DHT22;7139;48.114;11.442;2023-08-30T07:15:20;13.90;99.90
14122;DHT22;7139;48.114;11.442;2023-08-30T07:17:46;13.90;99.90
14122;DHT22;7139;48.114;11.442;2023-08-30T07:20:15;13.90;99.90
14122;DHT22;7139;48.114;11.442;2023-08-30T07:22:41;13.90;99.90
14122;DHT22;7139;48.114;11.442;2023-08-30T07:25:08;14.00;99.90
14122;DHT22;7139;48.114;11.442;2023-08-30T07:27:36;14.00;99.90
14122;DHT22;7139;48.114;11.442;2023-08-30T07:30:03;14.10;99.90
14122;DHT22;7139;48.114;11.442;2023-08-30T07:32:30;14.10;99.90
14122;DHT22;7139;48.114;11.442;2023-08-30T07:34:57;14.10;99.90
14122;DHT22;7139;48.114;11.442;2023-08-30T07:37:25;14.20;99.90
14122;DHT22;7139;48.114;11.442;2023-08-30T07:39:52;14.10;99.90
14122;DHT22;7139;48.114;11.442;2023-08-30T07:42:20;14.10;99.90
14122;DHT22;7139;48.114;11.442;2023-08-30T07:44:47;14.10;99.90
14122;DHT22;7139;48.114;11.442;2023-08-30T07:47:13;14.20;99.90
14122;DHT22;7139;48.114;11.442;2023-08-30T07:49:40;14.20;99.90
14122;DHT22;7139;48.114;11.442;2023-08-30T07:52:08;14.30;99.90
14122;DHT22;7139;48.114;11.442;2023-08-30T07:54:37;14.40;99.90
14122;DHT22;7139;48.114;11.442;2023-08-30T07:57:04;14.30;99.90
14122;DHT22;7139;48.114;11.442;2023-08-30T07:59:33;14.40;99.90
14122;DHT22;7139;48.114;11.442;2023-08-30T08:01:59;14.50;99.90
14122;DHT22;7139;48.114;11.442;2023-08-30T08:04:26;14.50;99.90
14122;DHT22;7139;48.114;11.442;2023-08-30T08:06:57;14.40;99.90
14122;DHT22;7139;48.114;11.442;2023-08-30T08:09:23;14.50;99.90
14122;DHT22;7139;48.114;11.442;2023-08-30T08:11:51;14.60;99.90
14122;DHT22;7139;48.114;11.442;2023-08-30T08:14:18;14.70;99.90
14122;DHT22;7139;48.114;11.442;2023-08-30T08:16:45;14.70;99.90
14122;DHT22;7139;48.114;11.442;2023-08-30T08:19:12;14.80;99.90
14122;DHT22;7139;48.114;11.442;2023-08-30T08:21:39;14.80;99.90
14122;DHT22;7139;48.114;11.442;2023-08-30T08:24:06;14.80;99.90
14122;DHT22;7139;48.114;11.442;2023-08-30T08:26:33;14.90;99.90
14122;DHT22;7139;48.114;11.442;2023-08-30T08:29:01;14.90;99.90
14122;DHT22;7139;48.114;11.442;2023-08-30T08:31:29;14.80;99.90
14122;DHT22;7139;48.114;11.442;2023-08-30T08:34:08;14.90;99.90
14122;DHT22;7139;48.114;11.442;2023-08-30T08:36:35;15.00;99.90
14122;DHT22;7139;48.114;11.442;2023-08-30T08:39:02;15.00;99.90
14122;DHT22;7139;48.114;11.442;2023-08-30T08:41:35;15.10;99.90
14122;DHT22;7139;48.114;11.442;2023-08-30T08:44:06;15.20;99.90
14122;DHT22;7139;48.114;11.442;2023-08-30T08:46:35;15.40;99.90
14122;DHT22;7139;48.114;11.442;2023-08-30T08:49:07;15.50;99.90
14122;DHT22;7139;48.114;11.442;2023-08-30T08:51:35;15.50;99.90
14122;DHT22;7139;48.114;11.442;2023-08-30T08:54:03;15.50;99.90
14122;DHT22;7139;48.114;11.442;2023-08-30T08:56:30;15.70;99.90
14122;DHT22;7139;48.114;11.442;2023-08-30T08:59:00;15.70;99.90
14122;DHT22;7139;48.114;11.442;2023-08-30T09:01:29;15.90;99.90
14122;DHT22;7139;48.114;11.442;2023-08-30T09:03:57;16.20;99.90
14122;DHT22;7139;48.114;11.442;2023-08-30T09:06:24;16.30;99.90
14122;DHT22;7139;48.114;11.442;2023-08-30T09:08:53;16.30;99.90
14122;DHT22;7139;48.114;11.442;2023-08-30T09:11:20;16.50;99.90
14122;DHT22;7139;48.114;11.442;2023-08-30T09:13:46;16.60;99.90
14122;DHT22;7139;48.114;11.442;2023-08-30T09:16:14;16.60;99.90
14122;DHT22;7139;48.114;11.442;2023-08-30T09:18:42;16.60;99.90
14122;DHT22;7139;48.114;11.442;2023-08-30T09:21:11;16.70;99.90
14122;DHT22;7139;48.114;11.442;2023-08-30T09:23:38;16.80;99.90
14122;DHT22;7139;48.114;11.442;2023-08-30T09:26:05;17.00;99.90
14122;DHT22;7139;48.114;11.442;2023-08-30T09:28:41;17.10;99.90
14122;DHT22;7139;48.114;11.442;2023-08-30T09:31:16;17.30;99.90
14122;DHT22;7139;48.114;11.442;2023-08-30T09:33:45;17.40;99.90
14122;DHT22;7139;48.114;11.442;2023-08-30T09:36:13;17.70;99.90
14122;DHT22;7139;48.114;11.442;2023-08-30T09:38:40;17.90;99.90
14122;DHT22;7139;48.114;11.442;2023-08-30T09:41:07;18.20;99.90
14122;DHT22;7139;48.114;11.442;2023-08-30T09:43:33;18.20;99.90
14122;DHT22;7139;48.114;11.442;2023-08-30T09:46:03;18.10;99.90
14122;DHT22;7139;48.114;11.442;2023-08-30T09:48:31;18.10;99.90
14122;DHT22;7139;48.114;11.442;2023-08-30T09:51:03;18.10;99.90
14122;DHT22;7139;48.114;11.442;2023-08-30T09:53:35;18.00;99.90
14122;DHT22;7139;48.114;11.442;2023-08-30T09:56:05;17.80;99.90
14122;DHT22;7139;48.114;11.442;2023-08-30T09:58:34;17.80;99.90
14122;DHT22;7139;48.114;11.442;2023-08-30T10:01:01;17.60;99.90
14122;DHT22;7139;48.114;11.442;2023-08-30T10:03:30;17.50;99.90
14122;DHT22;7139;48.114;11.442;2023-08-30T10:05:57;17.40;99.90
14122;DHT22;7139;48.114;11.442;2023-08-30T10:08:29;17.30;99.90
14122;DHT22;7139;48.114;11.442;2023-08-30T10:10:58;17.20;99.90
14122;DHT22;7139;48.114;11.442;2023-08-30T10:13:25;17.20;99.90
14122;DHT22;7139;48.114;11.442;2023-08-30T10:16:00;17.10;99.90
14122;DHT22;7139;48.114;11.442;2023-08-30T10:18:29;17.10;99.90
14122;DHT22;7139;48.114;11.442;2023-08-30T10:20:59;17.10;99.90
14122;DHT22;7139;48.114;11.442;2023-08-30T10:23:28;17.30;99.90
14122;DHT22;7139;48.114;11.442;2023-08-30T10:25:56;17.60;99.90
14122;DHT22;7139;48.114;11.442;2023-08-30T10:28:23;17.70;99.90
14122;DHT22;7139;48.114;11.442;2023-08-30T10:30:51;17.50;99.90
14122;DHT22;7139;48.114;11.442;2023-08-30T10:33:18;17.50;99.90
14122;DHT22;7139;48.114;11.442;2023-08-30T10:35:51;17.60;99.90
14122;DHT22;7139;48.114;11.442;2023-08-30T10:38:26;18.00;99.90
14122;DHT22;7139;48.114;11.442;2023-08-30T10:40:55;18.20;99.90
14122;DHT22;7139;48.114;11.442;2023-08-30T10:43:29;18.30;99.90
14122;DHT22;7139;48.114;11.442;2023-08-30T10:46:01;18.30;99.90
14122;DHT22;7139;48.114;11.442;2023-08-30T10:48:39;18.20;99.90
14122;DHT22;7139;48.114;11.442;2023-08-30T10:51:20;18.40;99.90
14122;DHT22;7139;48.114;11.442;2023-08-30T10:53:56;18.50;99.90
14122;DHT22;7139;48.114;11.442;2023-08-30T10:56:29;18.60;99.90
14122;DHT22;7139;48.114;11.442;2023-08-30T10:58:56;18.60;99.90
14122;DHT22;7139;48.114;11.442;2023-08-30T11:01:23;18.60;99.90
14122;DHT22;7139;48.114;11.442;2023-08-30T11:03:50;18.70;99.90
14122;DHT22;7139;48.114;11.442;2023-08-30T11:06:18;18.80;99.90
14122;DHT22;7139;48.114;11.442;2023-08-30T11:08:45;18.80;99.90
14122;DHT22;7139;48.114;11.442;2023-08-30T11:11:14;18.70;99.90
14122;DHT22;7139;48.114;11.442;2023-08-30T11:13:42;18.60;99.90
14122;DHT22;7139;48.114;11.442;2023-08-30T11:16:09;18.50;99.90
14122;DHT22;7139;48.114;11.442;2023-08-30T11:18:37;18.50;99.90
14122;DHT22;7139;48.114;11.442;2023-08-30T11:21:05;18.50;99.90
14122;DHT22;7139;48.114;11.442;2023-08-30T11:23:33;18.60;99.90
14122;DHT22;7139;48.114;11.442;2023-08-30T11:26:07;18.80;99.90
14122;DHT22;7139;48.114;11.442;2023-08-30T11:28:34;19.00;99.90
14122;DHT22;7139;48.114;11.442;2023-08-30T11:31:02;19.20;99.90
14122;DHT22;7139;48.114;11.442;2023-08-30T11:33:29;19.30;99.90
14122;DHT22;7139;48.114;11.442;2023-08-30T11:35:56;19.40;99.90
14122;DHT22;7139;48.114;11.442;2023-08-30T11:38:23;19.40;99.10
14122;DHT22;7139;48.114;11.442;2023-08-30T11:40:51;19.50;99.90
14122;DHT22;7139;48.114;11.442;2023-08-30T11:43:19;19.70;99.90
14122;DHT22;7139;48.114;11.442;2023-08-30T11:45:46;19.70;99.60
14122;DHT22;7139;48.114;11.442;2023-08-30T11:48:16;19.70;99.50
14122;DHT22;7139;48.114;11.442;2023-08-30T11:50:45;19.70;99.60
14122;DHT22;7139;48.114;11.442;2023-08-30T11:53:12;19.40;98.40
14122;DHT22;7139;48.114;11.442;2023-08-30T11:55:39;19.10;99.20
14122;DHT22;7139;48.114;11.442;2023-08-30T11:58:08;19.00;99.90
14122;DHT22;7139;48.114;11.442;2023-08-30T12:00:35;18.90;99.40
14122;DHT22;7139;48.114;11.442;2023-08-30T12:03:05;18.80;99.90
14122;DHT22;7139;48.114;11.442;2023-08-30T12:05:33;18.60;99.90
14122;DHT22;7139;48.114;11.442;2023-08-30T12:08:02;18.50;99.90
14122;DHT22;7139;48.114;11.442;2023-08-30T12:10:29;18.40;99.90
14122;DHT22;7139;48.114;11.442;2023-08-30T12:12:57;18.40;99.90
14122;DHT22;7139;48.114;11.442;2023-08-30T12:15:24;18.30;99.90
14122;DHT22;7139;48.114;11.442;2023-08-30T12:17:53;18.30;99.90
14122;DHT22;7139;48.114;11.442;2023-08-30T12:20:20;18.30;99.90
14122;DHT22;7139;48.114;11.442;2023-08-30T12:22:50;18.60;99.90
14122;DHT22;7139;48.114;11.442;2023-08-30T12:25:19;19.00;99.90
14122;DHT22;7139;48.114;11.442;2023-08-30T12:27:46;19.10;98.70
14122;DHT22;7139;48.114;11.442;2023-08-30T12:30:13;19.10;98.70
14122;DHT22;7139;48.114;11.442;2023-08-30T12:32:41;19.10;99.20
14122;DHT22;7139;48.114;11.442;2023-08-30T12:35:08;19.10;98.40
14122;DHT22;7139;48.114;11.442;2023-08-30T12:37:35;19.20;97.90
14122;DHT22;7139;48.114;11.442;2023-08-30T12:40:04;19.30;98.40
14122;DHT22;7139;48.114;11.442;2023-08-30T12:42:32;19.30;98.90
14122;DHT22;7139;48.114;11.442;2023-08-30T12:44:59;19.30;98.30
14122;DHT22;7139;48.114;11.442;2023-08-30T12:47:26;19.30;98.80
14122;DHT22;7139;48.114;11.442;2023-08-30T12:49:53;19.20;98.20
14122;DHT22;7139;48.114;11.442;2023-08-30T12:52:20;19.00;97.80
14122;DHT22;7139;48.114;11.442;2023-08-30T12:54:47;18.90;99.20
14122;DHT22;7139;48.114;11.442;2023-08-30T12:57:15;18.90;99.90
14122;DHT22;7139;48.114;11.442;2023-08-30T12:59:42;18.80;99.90
14122;DHT22;7139;48.114;11.442;2023-08-30T13:02:09;18.80;99.90
14122;DHT22;7139;48.114;11.442;2023-08-30T13:04:36;19.00;99.90
14122;DHT22;7139;48.114;11.442;2023-08-30T13:07:04;19.30;99.80
14122;DHT22;7139;48.114;11.442;2023-08-30T13:09:31;19.60;98.80
14122;DHT22;7139;48.114;11.442;2023-08-30T13:11:57;19.60;97.90
14122;DHT22;7139;48.114;11.442;2023-08-30T13:14:34;19.50;98.00
14122;DHT22;7139;48.114;11.442;2023-08-30T13:17:01;19.30;98.70
14122;DHT22;7139;48.114;11.442;2023-08-30T13:19:28;19.20;98.10
14122;DHT22;7139;48.114;11.442;2023-08-30T13:21:54;19.00;98.50
14122;DHT22;7139;48.114;11.442;2023-08-30T13:24:22;18.70;99.20
14122;DHT22;7139;48.114;11.442;2023-08-30T13:26:48;18.50;99.90
14122;DHT22;7139;48.114;11.442;2023-08-30T13:29:15;18.40;99.90
14122;DHT22;7139;48.114;11.442;2023-08-30T13:31:43;18.20;99.90
14122;DHT22;7139;48.114;11.442;2023-08-30T13:34:10;18.00;99.90
14122;DHT22;7139;48.114;11.442;2023-08-30T13:36:37;18.00;99.90
14122;DHT22;7139;48.114;11.442;2023-08-30T13:39:04;17.90;99.90
14122;DHT22;7139;48.114;11.442;2023-08-30T13:41:31;17.70;99.90
14122;DHT22;7139;48.114;11.442;2023-08-30T13:43:58;17.60;99.90
14122;DHT22;7139;48.114;11.442;2023-08-30T13:46:25;17.50;99.90
14122;DHT22;7139;48.114;11.442;2023-08-30T13:48:53;17.50;99.90
14122;DHT22;7139;48.114;11.442;2023-08-30T13:51:23;17.40;99.90
14122;DHT22;7139;48.114;11.442;2023-08-30T13:53:50;17.30;99.90
14122;DHT22;7139;48.114;11.442;2023-08-30T13:56:17;17.40;99.90
14122;DHT22;7139;48.114;11.442;2023-08-30T13:58:44;17.40;99.90
14122;DHT22;7139;48.114;11.442;2023-08-30T14:01:11;17.30;99.90
14122;DHT22;7139;48.114;11.442;2023-08-30T14:03:38;17.30;99.90
14122;DHT22;7139;48.114;11.442;2023-08-30T14:06:06;17.40;99.90
14122;DHT22;7139;48.114;11.442;2023-08-30T14:08:33;17.40;99.90
14122;DHT22;7139;48.114;11.442;2023-08-30T14:11:00;17.50;99.90
14122;DHT22;7139;48.114;11.442;2023-08-30T14:13:26;17.50;99.90
14122;DHT22;7139;48.114;11.442;2023-08-30T14:15:58;17.60;99.90
14122;DHT22;7139;48.114;11.442;2023-08-30T14:18:24;17.60;99.90
14122;DHT22;7139;48.114;11.442;2023-08-30T14:20:55;17.70;99.90
14122;DHT22;7139;48.114;11.442;2023-08-30T14:23:24;17.70;99.90
14122;DHT22;7139;48.114;11.442;2023-08-30T14:25:55;17.80;99.90
14122;DHT22;7139;48.114;11.442;2023-08-30T14:28:25;17.90;99.90
14122;DHT22;7139;48.114;11.442;2023-08-30T14:30:52;17.90;99.90
14122;DHT22;7139;48.114;11.442;2023-08-30T14:33:19;18.00;99.90
14122;DHT22;7139;48.114;11.442;2023-08-30T14:35:46;18.10;99.90
14122;DHT22;7139;48.114;11.442;2023-08-30T14:38:13;18.20;99.90
14122;DHT22;7139;48.114;11.442;2023-08-30T14:40:41;18.30;99.90
14122;DHT22;7139;48.114;11.442;2023-08-30T14:43:08;18.30;99.90
14122;DHT22;7139;48.114;11.442;2023-08-30T14:45:35;18.30;99.90
14122;DHT22;7139;48.114;11.442;2023-08-30T14:48:01;18.30;99.90
14122;DHT22;7139;48.114;11.442;2023-08-30T14:50:28;18.30;99.90
14122;DHT22;7139;48.114;11.442;2023-08-30T14:52:55;18.30;99.90
14122;DHT22;7139;48.114;11.442;2023-08-30T14:55:22;18.30;99.90
14122;DHT22;7139;48.114;11.442;2023-08-30T14:57:51;18.40;99.90
14122;DHT22;7139;48.114;11.442;2023-08-30T15:00:18;18.50;99.90
14122;DHT22;7139;48.114;11.442;2023-08-30T15:02:45;18.60;99.90
14122;DHT22;7139;48.114;11.442;2023-08-30T15:05:11;18.70;99.90
14122;DHT22;7139;48.114;11.442;2023-08-30T15:07:38;18.70;99.90
14122;DHT22;7139;48.114;11.442;2023-08-30T15:10:05;18.80;99.90
14122;DHT22;7139;48.114;11.442;2023-08-30T15:12:32;18.90;99.90
14122;DHT22;7139;48.114;11.442;2023-08-30T15:15:00;18.90;99.90
14122;DHT22;7139;48.114;11.442;2023-08-30T15:17:27;19.00;99.90
14122;DHT22;7139;48.114;11.442;2023-08-30T15:19:54;19.10;99.90
14122;DHT22;7139;48.114;11.442;2023-08-30T15:22:21;19.10;99.30
14122;DHT22;7139;48.114;11.442;2023-08-30T15:24:47;19.00;98.20
14122;DHT22;7139;48.114;11.442;2023-08-30T15:27:14;19.00;98.30
14122;DHT22;7139;48.114;11.442;2023-08-30T15:29:41;19.00;98.00
14122;DHT22;7139;48.114;11.442;2023-08-30T15:32:09;19.00;98.20
14122;DHT22;7139;48.114;11.442;2023-08-30T15:34:36;19.10;98.70
14122;DHT22;7139;48.114;11.442;2023-08-30T15:37:04;19.10;99.40
14122;DHT22;7139;48.114;11.442;2023-08-30T15:39:30;19.10;98.50
14122;DHT22;7139;48.114;11.442;2023-08-30T15:41:57;19.10;98.60
14122;DHT22;7139;48.114;11.442;2023-08-30T15:44:24;19.00;97.70